Monday, December 18, 2017, 11:27 AM EST
Back to Local

KLWB, Lewisburg / Greenbrier

Location: Frankford, WV, United States Lat: 37.867
Local Time: 11:27 AM EST (16:27 GMT) Lon: -80.4
Time Zone: US/Eastern Elev: 2303 ft

Show me the last for .
Show Decoded

2017-12-18 11:15 METAR KLWB 181615Z AUTO 24006KT 10SM OVC008 07/06 A3012 RMK AO2 T00650056 =
2017-12-18 10:35 METAR KLWB 181535Z AUTO 24005KT 10SM BKN004 OVC008 06/05 A3013 RMK AO2 T00590054
                 =
2017-12-18 10:15 METAR KLWB 181515Z AUTO 22004KT 7SM BKN002 OVC007 06/05 A3013 RMK AO2 T00550050
                 =
2017-12-18 09:55 METAR KLWB 181455Z AUTO 22003KT 7SM OVC007 05/05 A3013 RMK AO2 T00510049 =
2017-12-18 09:35 METAR KLWB 181435Z AUTO 00000KT 5SM BR OVC007 05/05 A3012 RMK AO2 T00470045 =
2017-12-18 09:15 METAR KLWB 181415Z AUTO 00000KT 5SM BR SCT002 OVC007 05/04 A3012 RMK AO2
                 T00450043 =
2017-12-18 08:55 METAR KLWB 181355Z AUTO 00000KT 4SM BR SCT002 OVC007 04/04 A3013 RMK AO2
                 T00420040 =
2017-12-18 08:35 METAR KLWB 181335Z AUTO 00000KT 3SM BR OVC007 04/04 A3012 RMK AO2 T00400040 =
2017-12-18 08:15 METAR KLWB 181315Z AUTO 00000KT 2SM BR SCT001 OVC007 04/04 A3012 RMK AO2
                 T00360035 =
2017-12-18 07:55 METAR KLWB 181255Z AUTO 00000KT 2SM BR OVC007 04/03 A3012 RMK AO2 T00350033 =
2017-12-18 07:35 METAR KLWB 181235Z AUTO 00000KT 2SM BR OVC007 04/03 A3012 RMK AO2 T00350032 =
2017-12-18 07:15 METAR KLWB 181215Z AUTO 22003KT 2 1/2SM BR OVC007 03/03 A3012 RMK AO2 T00330031
                 =
2017-12-18 06:55 METAR KLWB 181155Z AUTO 00000KT 1 3/4SM BR SCT002 OVC007 03/03 A3012 RMK AO2
                 70001 T00300028 10030 20016 =
2017-12-18 06:35 METAR KLWB 181135Z AUTO 00000KT 1 1/4SM BR BKN002 OVC007 03/03 A3012 RMK AO2
                 T00280026 =
2017-12-18 06:15 METAR KLWB 181115Z AUTO 00000KT 1 1/4SM BR BKN002 OVC009 03/03 A3012 RMK AO2
                 T00270025 =
2017-12-18 05:55 METAR KLWB 181055Z AUTO 00000KT 1 3/4SM BR BKN002 BKN006 OVC009 03/03 A3012 RMK
                 AO2 T00300027 =
2017-12-18 05:35 METAR KLWB 181035Z AUTO 22004KT 1SM BR BKN002 OVC009 03/03 A3012 RMK AO2
                 T00270025 =
2017-12-18 05:15 METAR KLWB 181015Z AUTO 20003KT 1SM BR BKN002 OVC009 03/02 A3012 RMK AO2
                 T00250024 =
2017-12-18 04:55 METAR KLWB 180955Z AUTO 00000KT 1 1/2SM BR BKN002 OVC009 03/02 A3011 RMK AO2
                 T00260024 =
2017-12-18 04:35 METAR KLWB 180935Z AUTO 00000KT 1 1/2SM BR OVC002 03/02 A3011 RMK AO2 T00250022
                 =
2017-12-18 04:15 METAR KLWB 180915Z AUTO 00000KT 1SM BR OVC002 02/02 A3011 RMK AO2 T00210020 =
2017-12-18 03:55 METAR KLWB 180855Z AUTO 00000KT 1SM BR OVC002 02/02 A3011 RMK AO2 T00200017 =
2017-12-18 03:35 METAR KLWB 180835Z AUTO 00000KT 1 1/4SM BR OVC002 02/02 A3012 RMK AO2 T00200016
                 =
2017-12-18 03:15 METAR KLWB 180815Z AUTO 00000KT 1 1/2SM BR BKN004 OVC007 02/02 A3012 RMK AO2
                 T00200015 =
2017-12-18 02:55 METAR KLWB 180755Z AUTO 00000KT 2 1/2SM BR OVC009 02/01 A3012 RMK AO2 T00180013
                 =
2017-12-18 02:35 METAR KLWB 180735Z AUTO 00000KT 4SM BR OVC009 02/01 A3012 RMK AO2 T00170011 =
2017-12-18 02:15 METAR KLWB 180715Z AUTO 00000KT 4SM BR OVC011 02/01 A3011 RMK AO2 T00180011 =
2017-12-18 01:55 METAR KLWB 180655Z AUTO 00000KT 5SM BR OVC011 02/01 A3011 RMK AO2 T00170010 =
2017-12-18 01:35 METAR KLWB 180635Z AUTO 00000KT 7SM OVC011 02/01 A3011 RMK AO2 T00180010 =
2017-12-18 01:15 METAR KLWB 180615Z AUTO 00000KT 7SM OVC011 02/01 A3011 RMK AO2 T00160010 =
2017-12-18 00:55 METAR KLWB 180555Z AUTO 00000KT 7SM BKN007 OVC011 02/01 A3011 RMK AO2 T00160010
                 10018 20015 =
2017-12-18 00:35 METAR KLWB 180535Z AUTO 00000KT 5SM BR SCT009 OVC014 02/01 A3011 RMK AO2
                 T00160010 =
2017-12-18 00:15 METAR KLWB 180515Z AUTO 00000KT 7SM OVC014 02/01 A3012 RMK AO2 T00160010 =
2017-12-17 23:55 METAR KLWB 180455Z AUTO 00000KT 7SM OVC016 02/01 A3013 RMK AO2 T00160010
                 400381041 =
2017-12-17 23:35 METAR KLWB 180435Z AUTO 00000KT 10SM BKN016 OVC021 02/01 A3013 RMK AO2 T00170009
                 =
2017-12-17 23:15 METAR KLWB 180415Z AUTO 00000KT 7SM OVC023 02/01 A3013 RMK AO2 T00160010 =
2017-12-17 22:55 METAR KLWB 180355Z AUTO 00000KT 7SM OVC025 02/01 A3013 RMK AO2 T00160009 =
2017-12-17 22:35 METAR KLWB 180335Z AUTO 00000KT 7SM OVC027 02/01 A3013 RMK AO2 T00160010 =
2017-12-17 22:15 METAR KLWB 180315Z AUTO 00000KT 10SM OVC029 02/01 A3014 RMK AO2 T00160008 =
2017-12-17 21:55 METAR KLWB 180255Z AUTO 00000KT 10SM OVC029 02/01 A3014 RMK AO2 T00160008 =
2017-12-17 21:35 METAR KLWB 180235Z AUTO 00000KT 10SM OVC029 02/01 A3013 RMK AO2 T00160006 =
2017-12-17 21:10 METAR KLWB 180210Z AUTO 00000KT 10SM OVC031 02/01 A3013 RMK AO2 T00170005 =
2017-12-17 20:55 METAR KLWB 180155Z AUTO 00000KT 10SM OVC031 02/01 A3013 RMK AO2 T00170007 =
2017-12-17 20:35 METAR KLWB 180135Z AUTO 02003KT 10SM OVC029 02/01 A3013 RMK AO2 T00170008 =
2017-12-17 20:15 METAR KLWB 180115Z AUTO 00000KT 10SM OVC029 02/01 A3013 RMK AO2 T00170007 =
2017-12-17 19:55 METAR KLWB 180055Z AUTO 00000KT 10SM OVC029 02/01 A3013 RMK AO2 T00170005 =
2017-12-17 19:35 METAR KLWB 180035Z AUTO 00000KT 10SM OVC029 02/01 A3014 RMK AO2 T00160007 =
2017-12-17 19:15 METAR KLWB 180015Z AUTO 00000KT 10SM OVC033 02/01 A3014 RMK AO2 T00160005 =
2017-12-17 18:55 METAR KLWB 172355Z AUTO 00000KT 10SM OVC035 02/01 A3015 RMK AO2 60001 T00160005
                 10038 20016 =
2017-12-17 18:35 METAR KLWB 172335Z AUTO 00000KT 10SM OVC037 02/00 A3015 RMK AO2 T00170004 =
2017-12-17 18:15 METAR KLWB 172315Z AUTO 00000KT 10SM OVC039 02/00 A3015 RMK AO2 T00170002 =
2017-12-17 17:55 METAR KLWB 172255Z AUTO 01004KT 10SM -DZ OVC043 02/00 A3015 RMK AO2 T00180004 =
2017-12-17 17:35 METAR KLWB 172235Z AUTO 00000KT 10SM BKN045 OVC060 02/01 A3015 RMK AO2 T00160005
                 =
2017-12-17 17:15 METAR KLWB 172215Z AUTO 00000KT 10SM OVC050 02/00 A3016 RMK AO2 T00160001 =
2017-12-17 16:55 METAR KLWB 172155Z AUTO 08003KT 10SM OVC050 02/00 A3017 RMK AO2 P0001 T00170003
                 =
2017-12-17 16:35 METAR KLWB 172135Z AUTO 04003KT 5SM RA OVC050 02/01 A3018 RMK AO2 P0001
                 T00200005 =
2017-12-17 16:15 METAR KLWB 172115Z AUTO 03005KT 7SM -RA OVC050 02/00 A3017 RMK AO2 T00220001 =
2017-12-17 15:55 METAR KLWB 172055Z AUTO 02006KT 5SM -RA OVC050 03/00 A3016 RMK AO2 T00250000 =
2017-12-17 15:35 METAR KLWB 172035Z AUTO 03005KT 7SM -RA OVC050 03/00 A3014 RMK AO2 T00250000 =
2017-12-17 15:15 METAR KLWB 172015Z AUTO 05003KT 10SM -RA OVC060 03/00 A3012 RMK AO2 T00291003 =
2017-12-17 14:55 METAR KLWB 171955Z AUTO 36003KT 10SM -RA OVC060 03/M01 A3015 RMK AO2 T00341014 =
2017-12-17 14:35 METAR KLWB 171935Z AUTO 02003KT 10SM -RA OVC060 04/M02 A3012 RMK AO2 T00371019 =
2017-12-17 14:15 METAR KLWB 171915Z AUTO 03003KT 10SM OVC070 04/M02 A3013 RMK AO2 T00381025 =
2017-12-17 13:55 METAR KLWB 171855Z AUTO 02005KT 10SM OVC070 04/M02 A3014 RMK AO2 T00361024 =
2017-12-17 13:35 METAR KLWB 171835Z AUTO 00000KT 10SM OVC080 04/M03 A3016 RMK AO2 T00361029 =
2017-12-17 13:15 METAR KLWB 171815Z AUTO 00000KT 10SM OVC080 04/M03 A3018 RMK AO2 T00351029 =
2017-12-17 12:55 METAR KLWB 171755Z AUTO 00000KT 10SM SCT065 OVC090 04/M03 A3018 RMK AO2
                 T00351034 10035 21026 =
2017-12-17 12:35 METAR KLWB 171735Z AUTO 00000KT 10SM SCT065 SCT080 OVC090 03/M03 A3019 RMK AO2
                 T00301031 =
2017-12-17 12:15 METAR KLWB 171715Z AUTO 00000KT 10SM OVC100 03/M03 A3019 RMK AO2 T00261031 =
2017-12-17 11:55 METAR KLWB 171655Z AUTO 00000KT 10SM SCT090 OVC100 02/M03 A3021 RMK AO2
                 T00231030 =
2017-12-17 11:35 METAR KLWB 171635Z AUTO 03003KT 10SM SCT080 BKN090 OVC110 02/M03 A3022 RMK AO2
                 T00221026 =

Support USWX by starting your Amazon purchase here.